createdAt,value
2018-06-19T00:00:44.477Z,0.00
2018-06-19T00:02:16.387Z,0.00
2018-06-19T00:03:48.099Z,0.00
2018-06-19T00:05:19.908Z,0.00
2018-06-19T00:06:51.719Z,0.00
2018-06-19T00:08:23.530Z,0.00
2018-06-19T00:09:55.340Z,0.00
2018-06-19T00:11:27.152Z,0.00
2018-06-19T00:12:58.963Z,0.00
2018-06-19T00:14:30.872Z,0.00
2018-06-19T00:16:02.607Z,0.00
2018-06-19T00:17:34.394Z,0.00
2018-06-19T00:19:06.205Z,0.00
2018-06-19T00:20:38.017Z,0.00
2018-06-19T00:22:09.825Z,0.00
2018-06-19T00:23:41.637Z,0.00
2018-06-19T00:25:13.453Z,0.00
2018-06-19T00:26:45.257Z,0.00
2018-06-19T00:28:17.067Z,0.00
2018-06-19T00:29:48.878Z,0.00
2018-06-19T00:31:20.688Z,0.00
2018-06-19T00:32:52.600Z,0.00
2018-06-19T00:34:24.310Z,0.00
2018-06-19T00:35:56.126Z,0.00
2018-06-19T00:37:27.931Z,0.00
2018-06-19T00:38:59.741Z,0.00
2018-06-19T00:40:31.552Z,0.00
2018-06-19T00:42:03.362Z,0.00
2018-06-19T00:43:35.173Z,0.00
2018-06-19T00:45:06.983Z,0.00
2018-06-19T00:46:38.794Z,0.00
2018-06-19T00:48:10.607Z,0.00
2018-06-19T00:49:42.415Z,0.00
2018-06-19T00:51:14.327Z,0.00
2018-06-19T00:52:46.037Z,0.00
2018-06-19T00:54:17.848Z,0.00
2018-06-19T00:55:49.659Z,0.00
2018-06-19T00:57:21.470Z,0.00
2018-06-19T00:58:53.280Z,0.00
2018-06-19T01:00:25.094Z,0.00
2018-06-19T01:01:56.900Z,0.00
2018-06-19T01:03:28.710Z,0.00
2018-06-19T01:05:00.521Z,0.00
2018-06-19T01:06:32.331Z,0.00
2018-06-19T01:08:04.143Z,0.00
2018-06-19T01:09:36.053Z,0.00
2018-06-19T01:11:07.764Z,0.00
2018-06-19T01:12:39.576Z,0.00
2018-06-19T01:14:11.385Z,0.00
2018-06-19T01:15:43.195Z,0.00
2018-06-19T01:17:15.007Z,0.00
2018-06-19T01:18:46.817Z,0.00
2018-06-19T01:20:18.627Z,0.00
2018-06-19T01:21:50.439Z,0.00
2018-06-19T01:23:22.249Z,0.00
2018-06-19T01:24:54.060Z,0.00
2018-06-19T01:26:25.874Z,0.00
2018-06-19T01:27:57.782Z,0.00
2018-06-19T01:29:29.499Z,0.00
2018-06-19T01:31:01.303Z,0.00
2018-06-19T01:32:33.115Z,0.00
2018-06-19T01:34:05.027Z,0.00
2018-06-19T01:35:36.737Z,0.00
2018-06-19T01:37:08.548Z,0.00
2018-06-19T01:38:40.360Z,0.00
2018-06-19T01:40:12.171Z,0.00
2018-06-19T01:41:43.981Z,0.00
2018-06-19T01:43:15.793Z,0.00
2018-06-19T01:44:47.603Z,0.00
2018-06-19T01:46:19.515Z,0.00
2018-06-19T01:47:51.224Z,0.00
2018-06-19T01:49:23.035Z,0.00
2018-06-19T01:50:54.845Z,0.00
2018-06-19T01:52:26.665Z,0.00
2018-06-19T01:53:58.467Z,0.00
2018-06-19T01:55:30.278Z,0.00
2018-06-19T01:57:02.089Z,0.00
2018-06-19T01:58:33.899Z,0.00
2018-06-19T02:00:05.710Z,0.00
2018-06-19T02:01:37.521Z,0.00
2018-06-19T02:03:09.331Z,0.00
2018-06-19T02:04:41.392Z,0.00
2018-06-19T02:06:12.952Z,0.00
2018-06-19T02:07:44.763Z,0.00
2018-06-19T02:09:16.576Z,0.00
2018-06-19T02:10:48.383Z,0.00
2018-06-19T02:12:20.195Z,0.00
2018-06-19T02:13:52.005Z,0.00
2018-06-19T02:15:23.817Z,0.00
2018-06-19T02:16:55.627Z,0.00
2018-06-19T02:18:27.437Z,0.00
2018-06-19T02:19:59.247Z,0.00
2018-06-19T02:21:31.058Z,0.00
2018-06-19T02:23:02.969Z,0.00
2018-06-19T02:24:34.681Z,0.00
2018-06-19T02:26:06.489Z,0.00
2018-06-19T02:27:38.301Z,0.00
2018-06-19T02:29:10.110Z,0.00
2018-06-19T02:30:41.922Z,0.00
2018-06-19T02:32:13.732Z,0.00
2018-06-19T02:33:45.542Z,0.00
2018-06-19T02:35:17.352Z,0.00
2018-06-19T02:36:49.162Z,0.00
2018-06-19T02:38:20.973Z,0.00
2018-06-19T02:39:52.785Z,0.00
2018-06-19T02:41:24.694Z,0.00
2018-06-19T02:42:56.406Z,0.00
2018-06-19T02:44:28.214Z,0.00
2018-06-19T02:46:00.043Z,0.00
2018-06-19T02:47:31.835Z,0.00
2018-06-19T02:49:03.647Z,0.00
2018-06-19T02:50:35.458Z,0.00
2018-06-19T02:52:07.272Z,0.00
2018-06-19T02:53:39.078Z,0.00
2018-06-19T02:55:10.890Z,0.00
2018-06-19T02:56:42.701Z,0.00
2018-06-19T02:58:14.509Z,0.00
2018-06-19T02:59:46.425Z,0.00
2018-06-19T03:01:18.132Z,0.00
2018-06-19T03:02:49.945Z,0.00
2018-06-19T03:04:21.752Z,0.00
2018-06-19T03:05:53.664Z,0.00
2018-06-19T03:07:25.374Z,0.00
2018-06-19T03:08:57.184Z,0.00
2018-06-19T03:10:28.996Z,0.00
2018-06-19T03:12:00.811Z,0.00
2018-06-19T03:13:32.617Z,0.00
2018-06-19T03:15:04.428Z,0.00
2018-06-19T03:16:36.238Z,0.00
2018-06-19T03:18:08.149Z,0.00
2018-06-19T03:19:39.884Z,0.00
2018-06-19T03:21:11.669Z,0.00
2018-06-19T03:22:43.479Z,0.00
2018-06-19T03:24:15.290Z,0.00
2018-06-19T03:25:47.101Z,0.00
2018-06-19T03:27:18.916Z,0.00
2018-06-19T03:28:50.722Z,0.00
2018-06-19T03:30:22.661Z,0.00
2018-06-19T03:31:54.343Z,0.00
2018-06-19T03:33:26.153Z,0.00
2018-06-19T03:34:57.964Z,0.00
2018-06-19T03:36:30.024Z,0.00
2018-06-19T03:38:01.586Z,0.00
2018-06-19T03:39:33.393Z,0.00
2018-06-19T03:41:05.204Z,0.00
2018-06-19T03:42:37.014Z,0.00
2018-06-19T03:44:08.825Z,0.00
2018-06-19T03:45:40.635Z,0.00
2018-06-19T03:47:12.446Z,0.00
2018-06-19T03:48:44.255Z,0.00
2018-06-19T03:50:16.064Z,0.00
2018-06-19T03:51:47.874Z,0.00
2018-06-19T03:53:19.686Z,0.00
2018-06-19T03:54:51.596Z,0.00
2018-06-19T03:56:23.305Z,0.00
2018-06-19T03:57:55.114Z,0.00
2018-06-19T03:59:26.925Z,0.00
2018-06-19T04:00:58.735Z,0.00
2018-06-19T04:02:30.546Z,0.00
2018-06-19T04:04:02.356Z,0.00
2018-06-19T04:05:34.168Z,0.00
2018-06-19T04:07:06.076Z,0.00
2018-06-19T04:08:37.784Z,0.00
2018-06-19T04:10:09.595Z,0.00
2018-06-19T04:11:41.409Z,0.00
2018-06-19T04:13:13.315Z,0.00
2018-06-19T04:14:45.025Z,0.00
2018-06-19T04:16:16.840Z,0.00
2018-06-19T04:17:48.649Z,0.00
2018-06-19T04:19:20.456Z,0.00
2018-06-19T04:20:52.267Z,0.00
2018-06-19T04:22:24.079Z,0.00
2018-06-19T04:23:55.888Z,0.00
2018-06-19T04:25:27.699Z,0.00
2018-06-19T04:26:59.510Z,0.00
2018-06-19T04:28:31.319Z,0.00
2018-06-19T04:30:03.131Z,0.00
2018-06-19T04:31:35.042Z,0.00
2018-06-19T04:33:06.752Z,0.00
2018-06-19T04:34:38.564Z,0.00
2018-06-19T04:36:10.371Z,0.00
2018-06-19T04:37:42.281Z,0.00
2018-06-19T04:39:13.992Z,0.00
2018-06-19T04:40:45.802Z,0.00
2018-06-19T04:42:17.612Z,0.00
2018-06-19T04:43:49.422Z,0.00
2018-06-19T04:45:21.232Z,0.00
2018-06-19T04:46:53.042Z,0.00
2018-06-19T04:48:24.852Z,0.00
2018-06-19T04:49:56.762Z,0.00
2018-06-19T04:51:28.474Z,0.00
2018-06-19T04:53:00.282Z,0.00
2018-06-19T04:54:32.093Z,0.00
2018-06-19T04:56:03.902Z,0.00
2018-06-19T04:57:35.714Z,0.00
2018-06-19T04:59:07.527Z,0.00
2018-06-19T05:00:39.332Z,0.00
2018-06-19T05:02:11.146Z,0.00
2018-06-19T05:03:42.991Z,0.00
2018-06-19T05:05:14.762Z,0.00
2018-06-19T05:06:46.571Z,0.00
2018-06-19T05:08:18.481Z,0.00
2018-06-19T05:09:50.191Z,0.00
2018-06-19T05:11:22.006Z,0.00
2018-06-19T05:12:53.827Z,0.00
2018-06-19T05:14:25.622Z,0.00
2018-06-19T05:15:57.431Z,0.00
2018-06-19T05:17:29.240Z,0.00
2018-06-19T05:19:01.051Z,0.00
2018-06-19T05:20:32.864Z,0.00
2018-06-19T05:22:04.670Z,0.00
2018-06-19T05:23:36.480Z,0.00
2018-06-19T05:25:08.290Z,0.00
2018-06-19T05:26:40.200Z,0.00
2018-06-19T05:28:11.910Z,0.00
2018-06-19T05:29:43.721Z,0.00
2018-06-19T05:31:15.529Z,0.00
2018-06-19T05:32:47.340Z,0.00
2018-06-19T05:34:19.149Z,0.00
2018-06-19T05:35:50.959Z,0.00
2018-06-19T05:37:22.769Z,0.00
2018-06-19T05:38:54.682Z,0.00
2018-06-19T05:40:26.388Z,0.00
2018-06-19T05:41:58.198Z,0.00
2018-06-19T05:43:30.009Z,0.00
2018-06-19T05:45:01.919Z,0.00
2018-06-19T05:46:33.628Z,0.00
2018-06-19T05:48:05.437Z,0.00
2018-06-19T05:49:37.247Z,0.00
2018-06-19T05:51:09.057Z,0.00
2018-06-19T05:52:40.869Z,0.00
2018-06-19T05:54:12.677Z,0.00
2018-06-19T05:55:44.487Z,0.00
2018-06-19T05:57:16.298Z,0.00
2018-06-19T05:58:48.106Z,0.00
2018-06-19T06:00:19.920Z,0.00
2018-06-19T06:01:51.728Z,0.00
2018-06-19T06:03:23.637Z,0.00
2018-06-19T06:04:55.347Z,0.00
2018-06-19T06:06:27.156Z,0.00
2018-06-19T06:07:58.965Z,0.00
2018-06-19T06:09:30.875Z,0.00
2018-06-19T06:11:02.590Z,0.00
2018-06-19T06:12:34.396Z,0.00
2018-06-19T06:14:06.203Z,0.00
2018-06-19T06:15:38.100Z,0.00
2018-06-19T06:17:09.823Z,0.00
2018-06-19T06:18:41.638Z,0.00
2018-06-19T06:20:13.443Z,0.00
2018-06-19T06:21:45.454Z,0.00
2018-06-19T06:23:17.063Z,0.00
2018-06-19T06:24:48.880Z,0.00
2018-06-19T06:26:20.687Z,0.00
2018-06-19T06:27:52.493Z,0.00
2018-06-19T06:29:24.303Z,0.00
2018-06-19T06:30:56.113Z,0.00
2018-06-19T06:32:27.923Z,0.00
2018-06-19T06:33:59.732Z,0.00
2018-06-19T06:35:31.543Z,0.00
2018-06-19T06:37:03.387Z,0.00
2018-06-19T06:38:35.163Z,0.00
2018-06-19T06:40:07.474Z,0.00
2018-06-19T06:41:38.784Z,0.00
2018-06-19T06:43:10.593Z,0.00
2018-06-19T06:44:42.408Z,0.00
2018-06-19T06:46:14.213Z,0.00
2018-06-19T06:47:46.023Z,0.00
2018-06-19T06:49:17.833Z,0.00
2018-06-19T06:50:49.643Z,0.00
2018-06-19T06:52:21.454Z,0.00
2018-06-19T06:53:53.263Z,0.00
2018-06-19T06:55:25.074Z,0.00
2018-06-19T06:56:56.885Z,0.00
2018-06-19T06:58:28.845Z,0.00
2018-06-19T07:00:00.503Z,0.00
2018-06-19T07:01:32.315Z,0.00
2018-06-19T07:03:04.129Z,0.00
2018-06-19T07:04:35.938Z,0.00
2018-06-19T07:06:07.746Z,0.00
2018-06-19T07:07:39.614Z,0.00
2018-06-19T07:09:11.364Z,0.00
2018-06-19T07:10:43.274Z,0.00
2018-06-19T07:12:14.985Z,0.00
2018-06-19T07:13:46.795Z,0.00
2018-06-19T07:15:18.604Z,0.00
2018-06-19T07:16:50.515Z,0.00
2018-06-19T07:18:22.224Z,0.00
2018-06-19T07:19:54.032Z,0.00
2018-06-19T07:21:25.845Z,0.00
2018-06-19T07:22:57.652Z,0.00
2018-06-19T07:24:29.460Z,0.00
2018-06-19T07:26:01.392Z,0.00
2018-06-19T07:27:33.081Z,0.00
2018-06-19T07:29:04.889Z,0.00
2018-06-19T07:30:36.702Z,0.00
2018-06-19T07:32:08.582Z,0.00
2018-06-19T07:33:40.319Z,0.00
2018-06-19T07:35:12.228Z,0.00
2018-06-19T07:36:43.993Z,0.00
2018-06-19T07:38:15.804Z,0.00
2018-06-19T07:39:47.555Z,0.00
2018-06-19T07:41:19.465Z,0.00
2018-06-19T07:42:51.175Z,0.00
2018-06-19T07:44:22.983Z,0.00
2018-06-19T07:45:54.793Z,0.00
2018-06-19T07:47:26.602Z,0.00
2018-06-19T07:48:58.411Z,0.00
2018-06-19T07:50:30.220Z,0.00
2018-06-19T07:52:02.031Z,0.00
2018-06-19T07:53:33.939Z,0.00
2018-06-19T07:55:05.650Z,0.00
2018-06-19T07:56:37.458Z,0.00
2018-06-19T07:58:09.270Z,0.00
2018-06-19T07:59:41.106Z,0.00
2018-06-19T08:01:12.885Z,0.00
2018-06-19T08:02:44.694Z,0.00
2018-06-19T08:04:16.507Z,0.00
2018-06-19T08:05:48.315Z,0.00
2018-06-19T08:07:20.122Z,0.00
2018-06-19T08:08:51.935Z,0.00
2018-06-19T08:10:23.740Z,0.00
2018-06-19T08:11:56.000Z,0.00
2018-06-19T08:13:27.413Z,0.00
2018-06-19T08:14:59.168Z,0.00
2018-06-19T08:16:30.981Z,0.00
2018-06-19T08:18:02.787Z,0.00
2018-06-19T08:19:34.597Z,0.00
2018-06-19T08:21:06.407Z,0.00
2018-06-19T08:22:38.215Z,0.00
2018-06-19T08:24:10.025Z,0.00
2018-06-19T08:25:41.834Z,0.00
2018-06-19T08:27:13.644Z,0.00
2018-06-19T08:28:45.454Z,0.00
2018-06-19T08:30:17.366Z,0.00
2018-06-19T08:31:49.073Z,0.00
2018-06-19T08:33:20.883Z,0.00
2018-06-19T08:34:52.692Z,0.00
2018-06-19T08:36:24.503Z,0.00
2018-06-19T08:37:56.312Z,0.00
2018-06-19T08:39:28.120Z,0.00
2018-06-19T08:40:59.930Z,0.00
2018-06-19T08:42:31.839Z,0.00
2018-06-19T08:44:03.549Z,0.00
2018-06-19T08:45:35.361Z,0.00
2018-06-19T08:47:07.173Z,0.00
2018-06-19T08:48:39.077Z,0.00
2018-06-19T08:50:10.787Z,0.00
2018-06-19T08:51:42.597Z,0.00
2018-06-19T08:53:14.403Z,0.00
2018-06-19T08:54:46.213Z,0.00
2018-06-19T08:56:20.827Z,0.00
2018-06-19T08:57:49.832Z,0.00
2018-06-19T08:59:21.642Z,0.00
2018-06-19T09:00:53.451Z,0.00
2018-06-19T09:02:25.259Z,0.00
2018-06-19T09:03:57.069Z,0.00
2018-06-19T09:05:28.877Z,0.00
2018-06-19T09:07:00.788Z,0.00
2018-06-19T09:08:32.496Z,0.00
2018-06-19T09:10:04.306Z,0.00
2018-06-19T09:11:36.115Z,0.00
2018-06-19T09:13:08.024Z,0.00
2018-06-19T09:14:39.734Z,0.00
2018-06-19T09:16:11.545Z,0.00
2018-06-19T09:17:43.352Z,0.00
2018-06-19T09:19:15.162Z,0.00
2018-06-19T09:20:46.971Z,0.00
2018-06-19T09:22:18.781Z,4.00
2018-06-19T09:23:50.590Z,0.00
2018-06-19T09:25:22.500Z,4.00
2018-06-19T09:26:54.209Z,4.00
2018-06-19T09:28:26.019Z,8.00
2018-06-19T09:29:57.829Z,8.00
2018-06-19T09:31:29.652Z,16.00
2018-06-19T09:33:01.449Z,20.00
2018-06-19T09:34:33.257Z,36.00
2018-06-19T09:36:05.066Z,44.00
2018-06-19T09:37:36.879Z,68.00
2018-06-19T09:39:08.689Z,92.00
2018-06-19T09:40:40.496Z,124.00
2018-06-19T09:42:12.304Z,164.00
2018-06-19T09:43:44.364Z,208.00
2018-06-19T09:45:15.923Z,240.00
2018-06-19T09:46:47.732Z,324.00
2018-06-19T09:48:19.543Z,344.00
2018-06-19T09:49:51.351Z,416.00
2018-06-19T09:51:23.161Z,480.00
2018-06-19T09:52:54.975Z,572.00
2018-06-19T09:54:26.780Z,624.00
2018-06-19T09:55:58.590Z,708.00
2018-06-19T09:57:30.399Z,836.00
2018-06-19T09:59:02.275Z,868.00
2018-06-19T10:00:34.020Z,984.00
2018-06-19T10:02:05.928Z,1136.00
2018-06-19T10:03:37.636Z,1252.00
2018-06-19T10:05:09.750Z,1400.00
2018-06-19T10:06:41.260Z,1576.00
2018-06-19T10:08:13.066Z,1760.00
2018-06-19T10:09:44.875Z,2008.00
2018-06-19T10:11:16.685Z,2132.00
2018-06-19T10:12:48.496Z,2476.00
2018-06-19T10:14:20.407Z,2548.00
2018-06-19T10:15:52.116Z,2800.00
2018-06-19T10:17:23.975Z,3104.00
2018-06-19T10:20:27.852Z,3196.00
2018-06-19T10:21:59.356Z,3508.00
2018-06-19T10:23:31.168Z,3524.00
2018-06-19T10:25:02.975Z,3460.00
2018-06-19T10:26:34.786Z,3544.00
2018-06-19T10:28:06.597Z,3636.00
2018-06-19T10:29:38.422Z,3768.00
2018-06-19T10:31:10.217Z,3976.00
2018-06-19T10:32:42.028Z,4348.00
2018-06-19T10:34:13.838Z,4748.00
2018-06-19T10:35:45.649Z,6092.00
2018-06-19T10:37:17.565Z,6232.00
2018-06-19T10:38:49.420Z,7232.00
2018-06-19T10:40:21.079Z,7456.00
2018-06-19T10:41:53.093Z,7308.00
2018-06-19T10:43:24.736Z,7652.00
2018-06-19T10:46:28.324Z,8108.00
2018-06-19T10:48:00.440Z,8360.00
2018-06-19T10:49:31.946Z,8544.00
2018-06-19T10:55:39.602Z,9704.00
2018-06-19T10:57:11.088Z,10020.00
2018-06-19T10:58:42.823Z,10316.00
2018-06-19T11:00:14.639Z,10380.00
2018-06-19T11:01:47.093Z,10788.00
2018-06-19T11:03:18.273Z,11108.00
2018-06-19T11:06:21.891Z,11804.00
2018-06-19T11:09:25.521Z,12564.00
2018-06-19T11:10:57.539Z,13244.00
2018-06-19T11:12:29.149Z,13408.00
2018-06-19T11:14:00.981Z,14172.00
2018-06-19T11:15:32.878Z,15636.00
2018-06-19T11:17:04.593Z,20448.00
2018-06-19T11:18:36.421Z,18208.00
2018-06-19T11:20:08.364Z,14520.00
2018-06-19T11:21:40.253Z,13928.00
2018-06-19T11:23:11.882Z,14080.00
2018-06-19T11:24:43.668Z,14240.00
2018-06-19T11:26:15.483Z,14424.00
2018-06-19T11:27:47.913Z,14976.00
2018-06-19T11:29:19.418Z,15348.00
2018-06-19T11:32:22.822Z,11448.00
2018-06-19T11:33:54.746Z,17312.00
2018-06-19T11:35:26.397Z,11456.00
2018-06-19T11:36:58.659Z,20128.00
2018-06-19T11:40:01.823Z,11592.00
2018-06-19T11:41:33.839Z,18112.00
2018-06-19T11:43:05.452Z,21856.00
2018-06-19T11:44:37.627Z,21472.00
2018-06-19T11:46:09.139Z,23616.00
2018-06-19T11:47:41.204Z,26560.00
2018-06-19T11:49:12.944Z,28448.00
2018-06-19T11:50:44.537Z,27360.00
2018-06-19T11:52:16.574Z,16332.00
2018-06-19T11:53:48.384Z,13120.00
2018-06-19T11:55:20.296Z,12860.00
2018-06-19T11:56:51.881Z,14932.00
2018-06-19T11:58:23.828Z,13152.00
2018-06-19T12:01:27.243Z,12204.00
2018-06-19T12:02:59.381Z,13188.00
2018-06-19T12:04:30.948Z,14056.00
2018-06-19T12:06:02.688Z,13600.00
2018-06-19T12:07:34.502Z,12980.00
2018-06-19T12:09:06.523Z,13776.00
2018-06-19T12:10:38.229Z,12940.00
2018-06-19T12:15:14.177Z,14244.00
2018-06-19T12:18:17.255Z,13304.00
2018-06-19T12:19:49.518Z,14092.00
2018-06-19T12:21:21.341Z,16156.00
2018-06-19T12:22:52.944Z,15960.00
2018-06-19T12:24:24.517Z,17120.00
2018-06-19T12:25:56.469Z,21792.00
2018-06-19T12:27:28.385Z,17728.00
2018-06-19T12:29:00.502Z,17536.00
2018-06-19T12:30:31.809Z,15284.00
2018-06-19T12:32:03.524Z,15300.00
2018-06-19T12:33:35.975Z,16444.00
2018-06-19T12:35:07.421Z,16780.00
2018-06-19T12:38:10.784Z,19456.00
2018-06-19T12:39:42.597Z,18784.00
2018-06-19T12:41:14.943Z,21088.00
2018-06-19T12:42:46.233Z,27040.00
2018-06-19T12:44:18.162Z,16988.00
2018-06-19T12:45:50.057Z,18560.00
2018-06-19T12:47:21.712Z,18784.00
2018-06-19T12:48:53.684Z,20992.00
2018-06-19T12:50:25.536Z,19328.00
2018-06-19T12:55:01.667Z,21376.00
2018-06-19T12:56:32.911Z,20992.00
2018-06-19T12:58:04.421Z,21632.00
2018-06-19T13:01:08.015Z,21696.00
2018-06-19T13:02:39.829Z,20672.00
2018-06-19T13:04:11.631Z,23392.00
2018-06-19T13:05:43.445Z,23296.00
2018-06-19T13:07:15.407Z,20800.00
2018-06-19T13:08:47.176Z,20992.00
2018-06-19T13:10:18.894Z,19808.00
2018-06-19T13:11:50.732Z,20672.00
2018-06-19T13:14:54.944Z,24960.00
2018-06-19T13:16:26.416Z,29760.00
2018-06-19T13:17:57.977Z,23328.00
2018-06-19T13:19:30.084Z,21344.00
2018-06-19T13:21:01.833Z,22784.00
2018-06-19T13:22:33.716Z,26880.00
2018-06-19T13:24:05.239Z,22176.00
2018-06-19T13:25:37.571Z,37760.00
2018-06-19T13:27:08.960Z,23008.00
2018-06-19T13:28:40.689Z,21824.00
2018-06-19T13:30:12.580Z,18752.00
2018-06-19T13:31:44.500Z,19104.00
2018-06-19T13:33:16.122Z,21120.00
2018-06-19T13:36:19.813Z,25440.00
2018-06-19T13:37:51.880Z,23872.00
2018-06-19T13:39:23.457Z,22752.00
2018-06-19T13:40:56.013Z,23296.00
2018-06-19T13:42:27.015Z,22720.00
2018-06-19T13:43:58.826Z,22656.00
2018-06-19T13:47:02.735Z,27552.00
2018-06-19T13:48:34.273Z,24640.00
2018-06-19T13:50:06.096Z,24832.00
2018-06-19T13:51:37.906Z,23296.00
2018-06-19T13:53:09.973Z,26816.00
2018-06-19T13:54:41.537Z,22944.00
2018-06-19T13:56:13.604Z,28448.00
2018-06-19T13:57:45.169Z,35552.00
2018-06-19T13:59:17.184Z,26880.00
2018-06-19T14:00:48.801Z,27648.00
2018-06-19T14:02:20.621Z,30336.00
2018-06-19T14:03:52.685Z,25856.00
2018-06-19T14:05:24.501Z,26880.00
2018-06-19T14:08:27.976Z,37312.00
2018-06-19T14:09:59.801Z,27936.00
2018-06-19T14:11:31.519Z,26400.00
2018-06-19T14:13:03.337Z,28320.00
2018-06-19T14:14:35.374Z,34208.00
2018-06-19T14:16:07.263Z,20960.00
2018-06-19T14:17:39.499Z,34688.00
2018-06-19T14:20:42.459Z,28160.00
2018-06-19T14:25:17.984Z,33088.00
2018-06-19T14:26:50.614Z,32928.00
2018-06-19T14:28:21.533Z,35680.00
2018-06-19T14:29:53.774Z,36672.00
2018-06-19T14:32:57.122Z,29824.00
2018-06-19T14:34:28.806Z,34848.00
2018-06-19T14:37:32.441Z,35616.00
2018-06-19T14:39:04.527Z,33568.00
2018-06-19T14:40:36.083Z,35616.00
2018-06-19T14:42:07.949Z,33984.00
2018-06-19T14:45:11.846Z,31392.00
2018-06-19T14:48:15.188Z,29792.00
2018-06-19T14:49:47.010Z,29632.00
2018-06-19T14:51:19.135Z,29152.00
2018-06-19T14:52:50.855Z,28864.00
2018-06-19T14:55:54.601Z,29600.00
2018-06-19T14:58:58.151Z,30144.00
2018-06-19T15:00:29.844Z,30528.00
2018-06-19T15:02:01.787Z,32096.00
2018-06-19T15:05:05.334Z,35200.00
2018-06-19T15:06:37.582Z,45152.00
2018-06-19T15:09:40.693Z,64416.00
2018-06-19T15:12:44.337Z,65600.00
2018-06-19T15:14:16.158Z,70624.00
2018-06-19T15:15:47.980Z,67296.00
2018-06-19T15:17:19.881Z,70752.00
2018-06-19T15:18:51.624Z,72576.00
2018-06-19T15:20:23.671Z,71136.00
2018-06-19T15:21:55.468Z,68928.00
2018-06-19T15:23:27.087Z,76544.00
2018-06-19T15:29:34.729Z,78304.00
2018-06-19T15:31:06.783Z,77216.00
2018-06-19T15:32:38.019Z,75808.00
2018-06-19T15:34:09.840Z,68064.00
2018-06-19T15:35:42.302Z,69568.00
2018-06-19T15:37:13.925Z,70176.00
2018-06-19T15:38:45.942Z,71360.00
2018-06-19T15:40:17.136Z,75456.00
2018-06-19T15:41:49.073Z,76480.00
2018-06-19T15:43:21.329Z,76000.00
2018-06-19T15:44:52.607Z,74624.00
2018-06-19T15:46:24.475Z,73344.00
2018-06-19T15:47:57.336Z,71744.00
2018-06-19T15:52:31.738Z,69792.00
2018-06-19T15:54:03.750Z,72384.00
2018-06-19T15:55:35.703Z,67008.00
2018-06-19T15:57:07.765Z,41120.00
2018-06-19T15:58:39.163Z,74080.00
2018-06-19T16:00:10.952Z,70208.00
2018-06-19T16:01:42.876Z,67200.00
2018-06-19T16:03:14.773Z,69600.00
2018-06-19T16:04:46.608Z,68384.00
2018-06-19T16:06:18.233Z,54432.00
2018-06-19T16:07:49.961Z,76192.00
2018-06-19T16:12:25.634Z,75712.00
2018-06-19T16:13:57.241Z,77536.00
2018-06-19T16:15:29.050Z,78976.00
2018-06-19T16:17:00.865Z,77856.00
2018-06-19T16:18:32.687Z,72576.00
2018-06-19T16:20:04.635Z,65312.00
2018-06-19T16:21:36.334Z,66080.00
2018-06-19T16:23:08.261Z,32224.00
2018-06-19T16:24:40.130Z,58016.00
2018-06-19T16:26:12.464Z,65152.00
2018-06-19T16:29:15.443Z,79296.00
2018-06-19T16:32:19.720Z,73984.00
2018-06-19T16:33:51.213Z,0.00
2018-06-19T16:35:22.732Z,77856.00
2018-06-19T16:38:26.581Z,77696.00
2018-06-19T16:39:58.201Z,72256.00
2018-06-19T16:41:30.032Z,71104.00
2018-06-19T16:43:01.856Z,70848.00
2018-06-19T16:44:33.767Z,74528.00
2018-06-19T16:46:05.993Z,75488.00
2018-06-19T16:47:37.310Z,77376.00
2018-06-19T16:49:09.176Z,77248.00
2018-06-19T16:50:41.488Z,78656.00
2018-06-19T16:52:12.776Z,81184.00
2018-06-19T16:53:44.663Z,78144.00
2018-06-19T16:55:16.424Z,74912.00
2018-06-19T16:56:48.244Z,72128.00
2018-06-19T16:58:20.069Z,73920.00
2018-06-19T16:59:51.886Z,74848.00
2018-06-19T17:01:23.726Z,76704.00
2018-06-19T17:02:55.633Z,78752.00
2018-06-19T17:04:27.354Z,75488.00
2018-06-19T17:05:59.176Z,76000.00
2018-06-19T17:07:30.999Z,73600.00
2018-06-19T17:09:02.823Z,72704.00
2018-06-19T17:10:34.642Z,62720.00
2018-06-19T17:12:06.463Z,58240.00
2018-06-19T17:13:38.377Z,55104.00
2018-06-19T17:15:10.577Z,56416.00
2018-06-19T17:16:41.930Z,54560.00
2018-06-19T17:18:13.755Z,53984.00
2018-06-19T17:19:45.574Z,58976.00
2018-06-19T17:21:17.521Z,58624.00
2018-06-19T17:22:49.221Z,57536.00
2018-06-19T17:24:21.052Z,58176.00
2018-06-19T17:25:52.957Z,56864.00
2018-06-19T17:27:25.484Z,59456.00
2018-06-19T17:28:56.507Z,56800.00
2018-06-19T17:30:28.326Z,60992.00
2018-06-19T17:32:00.149Z,62432.00
2018-06-19T17:33:31.972Z,66592.00
2018-06-19T17:35:04.096Z,65600.00
2018-06-19T17:36:35.830Z,65376.00
2018-06-19T17:38:07.439Z,65152.00
2018-06-19T17:39:39.360Z,62752.00
2018-06-19T17:41:11.086Z,56160.00
2018-06-19T17:42:42.903Z,51328.00
2018-06-19T17:44:14.729Z,48000.00
2018-06-19T17:45:47.080Z,50016.00
2018-06-19T17:47:18.573Z,51200.00
2018-06-19T17:48:50.212Z,50528.00
2018-06-19T17:50:22.014Z,52448.00
2018-06-19T17:53:25.658Z,52384.00
2018-06-19T17:54:57.637Z,49216.00
2018-06-19T17:56:29.304Z,48768.00
2018-06-19T17:58:01.425Z,48928.00
2018-06-19T17:59:33.196Z,48736.00
2018-06-19T18:01:04.795Z,45632.00
2018-06-19T18:02:36.589Z,44384.00
2018-06-19T18:04:08.410Z,41376.00
2018-06-19T18:05:40.233Z,40448.00
2018-06-19T18:08:44.253Z,36736.00
2018-06-19T18:11:47.727Z,36224.00
2018-06-19T18:13:19.343Z,34496.00
2018-06-19T18:14:51.162Z,36480.00
2018-06-19T18:16:23.045Z,36480.00
2018-06-19T18:17:54.905Z,36960.00
2018-06-19T18:19:26.626Z,35200.00
2018-06-19T18:20:58.452Z,35552.00
2018-06-19T18:22:30.265Z,32928.00
2018-06-19T18:25:33.933Z,31904.00
2018-06-19T18:27:05.744Z,30080.00
2018-06-19T18:30:09.673Z,29408.00
2018-06-19T18:31:41.194Z,16240.00
2018-06-19T18:33:13.082Z,28736.00
2018-06-19T18:34:44.830Z,25664.00
2018-06-19T18:36:16.651Z,23392.00
2018-06-19T18:37:48.828Z,11064.00
2018-06-19T18:39:20.336Z,11528.00
2018-06-19T18:40:52.115Z,11616.00
2018-06-19T18:42:23.934Z,17792.00
2018-06-19T18:43:55.755Z,21664.00
2018-06-19T18:46:59.443Z,20928.00
2018-06-19T18:48:31.515Z,23520.00
2018-06-19T18:50:03.566Z,24512.00
2018-06-19T18:51:34.851Z,23840.00
2018-06-19T18:53:06.672Z,22656.00
2018-06-19T18:54:38.496Z,22144.00
2018-06-19T18:56:10.412Z,21312.00
2018-06-19T18:57:42.436Z,19840.00
2018-06-19T18:59:13.953Z,14668.00
2018-06-19T19:00:45.778Z,11564.00
2018-06-19T19:03:49.414Z,9956.00
2018-06-19T19:05:21.236Z,10184.00
2018-06-19T19:06:53.052Z,10424.00
2018-06-19T19:08:24.916Z,10316.00
2018-06-19T19:09:56.689Z,9812.00
2018-06-19T19:11:28.548Z,10376.00
2018-06-19T19:13:00.328Z,10088.00
2018-06-19T19:14:32.450Z,8884.00
2018-06-19T19:16:04.147Z,7992.00
2018-06-19T19:17:35.786Z,7260.00
2018-06-19T19:19:07.668Z,6840.00
2018-06-19T19:20:39.418Z,6804.00
2018-06-19T19:22:11.237Z,6788.00
2018-06-19T19:23:43.103Z,6696.00
2018-06-19T19:25:15.072Z,6480.00
2018-06-19T19:26:46.733Z,6392.00
2018-06-19T19:28:18.732Z,6504.00
2018-06-19T19:29:50.324Z,6432.00
2018-06-19T19:31:22.137Z,6132.00
2018-06-19T19:32:53.978Z,5896.00
2018-06-19T19:34:25.869Z,5640.00
2018-06-19T19:35:57.587Z,5464.00
2018-06-19T19:37:29.705Z,5616.00
2018-06-19T19:39:01.223Z,6056.00
2018-06-19T19:40:33.033Z,6412.00
2018-06-19T19:42:04.848Z,6472.00
2018-06-19T19:43:36.663Z,6272.00
2018-06-19T19:45:08.483Z,5828.00
2018-06-19T19:46:40.295Z,5276.00
2018-06-19T19:48:12.155Z,4688.00
2018-06-19T19:49:43.937Z,4284.00
2018-06-19T19:51:15.738Z,4288.00
2018-06-19T19:52:47.761Z,4100.00
2018-06-19T19:54:19.398Z,3852.00
2018-06-19T19:55:51.183Z,3508.00
2018-06-19T19:57:23.094Z,3328.00
2018-06-19T19:58:54.810Z,3264.00
2018-06-19T20:01:58.642Z,3040.00
2018-06-19T20:03:30.251Z,2848.00
2018-06-19T20:05:02.064Z,2656.00
2018-06-19T20:06:33.951Z,2436.00
2018-06-19T20:09:37.526Z,1900.00
2018-06-19T20:11:09.418Z,1696.00
2018-06-19T20:12:41.131Z,1520.00
2018-06-19T20:14:12.945Z,1308.00
2018-06-19T20:15:44.757Z,1100.00
2018-06-19T20:17:16.571Z,904.00
2018-06-19T20:18:48.398Z,804.00
2018-06-19T20:20:20.196Z,704.00
2018-06-19T20:21:52.010Z,620.00
2018-06-19T20:23:24.275Z,512.00
2018-06-19T20:24:55.636Z,428.00
2018-06-19T20:26:27.448Z,356.00
2018-06-19T20:27:59.259Z,272.00
2018-06-19T20:29:31.073Z,224.00
2018-06-19T20:31:02.884Z,176.00